createdAt,value
2023-04-02T00:00:10.916Z,99881.00
2023-04-02T00:02:37.199Z,99884.44
2023-04-02T00:05:03.458Z,99897.50
2023-04-02T00:07:29.674Z,99899.28
2023-04-02T00:09:55.897Z,99898.38
2023-04-02T00:12:22.242Z,99898.44
2023-04-02T00:14:48.453Z,99902.78
2023-04-02T00:17:14.601Z,99901.28
2023-04-02T00:19:41.228Z,99901.28
2023-04-02T00:22:07.436Z,99910.13
2023-04-02T00:24:33.685Z,99907.50
2023-04-02T00:26:59.869Z,99919.66
2023-04-02T00:29:25.975Z,99919.03
2023-04-02T00:31:52.160Z,99912.09
2023-04-02T00:34:18.317Z,99926.72
2023-04-02T00:36:44.487Z,99923.19
2023-04-02T00:39:10.676Z,99924.13
2023-04-02T00:41:36.848Z,99927.38
2023-04-02T00:44:03.070Z,99920.75
2023-04-02T00:46:29.341Z,99926.72
2023-04-02T00:48:55.539Z,99929.44
2023-04-02T00:51:21.718Z,99920.03
2023-04-02T00:53:47.869Z,99934.69
2023-04-02T00:56:14.076Z,99936.47
2023-04-02T00:58:40.257Z,99922.78
2023-04-02T01:01:07.513Z,99927.28
2023-04-02T01:03:34.058Z,99931.41
2023-04-02T01:06:00.519Z,99930.66
2023-04-02T01:08:26.688Z,99935.22
2023-04-02T01:10:52.900Z,99938.72
2023-04-02T01:13:19.079Z,99936.91
2023-04-02T01:15:45.269Z,99941.69
2023-04-02T01:18:11.449Z,99941.69
2023-04-02T01:20:37.629Z,99946.91
2023-04-02T01:23:03.796Z,99944.31
2023-04-02T01:25:29.937Z,99949.47
2023-04-02T01:27:56.069Z,99952.91
2023-04-02T01:30:22.266Z,99955.34
2023-04-02T01:32:48.451Z,99960.69
2023-04-02T01:35:14.671Z,99959.81
2023-04-02T01:37:40.839Z,99959.66
2023-04-02T01:40:07.047Z,99963.09
2023-04-02T01:42:33.227Z,99964.84
2023-04-02T01:44:59.504Z,99964.84
2023-04-02T01:47:25.762Z,99968.50
2023-04-02T01:49:52.021Z,99970.94
2023-04-02T01:52:18.219Z,99968.50
2023-04-02T01:54:44.399Z,99974.69
2023-04-02T01:57:10.640Z,99979.03
2023-04-02T01:59:36.840Z,99980.03
2023-04-02T02:02:05.942Z,99976.28
2023-04-02T02:04:32.205Z,99976.09
2023-04-02T02:06:58.371Z,99975.41
2023-04-02T02:09:24.508Z,99984.22
2023-04-02T02:11:50.651Z,99983.25
2023-04-02T02:14:16.845Z,99984.09
2023-04-02T02:16:43.071Z,99989.34
2023-04-02T02:19:09.373Z,99990.53
2023-04-02T02:21:35.568Z,99989.00
2023-04-02T02:24:01.748Z,99995.09
2023-04-02T02:26:27.933Z,99996.66
2023-04-02T02:28:54.060Z,99995.69
2023-04-02T02:31:20.207Z,100003.22
2023-04-02T02:33:46.442Z,100001.50
2023-04-02T02:36:12.607Z,100004.81
2023-04-02T02:38:38.817Z,100007.00
2023-04-02T02:41:04.995Z,100013.03
2023-04-02T02:43:31.194Z,100009.50
2023-04-02T02:45:57.374Z,100021.72
2023-04-02T02:48:23.606Z,100014.72
2023-04-02T02:50:49.803Z,100016.53
2023-04-02T02:53:15.973Z,100018.38
2023-04-02T02:55:42.171Z,100014.16
2023-04-02T02:58:08.369Z,100024.13
2023-04-02T03:00:34.542Z,100017.53
2023-04-02T03:03:00.850Z,100029.59
2023-04-02T03:05:27.086Z,100026.81
2023-04-02T03:07:53.226Z,100027.00
2023-04-02T03:10:19.419Z,100030.44
2023-04-02T03:12:45.619Z,100034.03
2023-04-02T03:15:11.860Z,100034.03
2023-04-02T03:17:38.032Z,100037.47
2023-04-02T03:20:04.219Z,100038.47
2023-04-02T03:22:30.353Z,100041.88
2023-04-02T03:24:56.477Z,100044.38
2023-04-02T03:27:22.636Z,100044.53
2023-04-02T03:29:48.763Z,100058.41
2023-04-02T03:32:14.917Z,100049.75
2023-04-02T03:34:41.072Z,100055.50
2023-04-02T03:37:07.285Z,100060.84
2023-04-02T03:39:33.465Z,100065.16
2023-04-02T03:41:59.604Z,100069.63
2023-04-02T03:44:25.790Z,100065.25
2023-04-02T03:46:52.025Z,100065.53
2023-04-02T03:49:18.288Z,100077.56
2023-04-02T03:51:44.486Z,100070.81
2023-04-02T03:54:10.661Z,100079.19
2023-04-02T03:56:36.822Z,100081.78
2023-04-02T03:59:02.964Z,100090.34
2023-04-02T04:01:29.147Z,100090.56
2023-04-02T04:03:55.322Z,100088.16
2023-04-02T04:06:21.498Z,100100.25
2023-04-02T04:08:49.940Z,100097.75
2023-04-02T04:11:16.198Z,100102.94
2023-04-02T04:13:42.393Z,100102.84
2023-04-02T04:16:08.546Z,100107.41
2023-04-02T04:18:34.712Z,100105.81
2023-04-02T04:21:00.924Z,100109.84
2023-04-02T04:23:27.134Z,100108.22
2023-04-02T04:25:53.316Z,100120.50
2023-04-02T04:28:19.530Z,100118.94
2023-04-02T04:30:45.747Z,100121.63
2023-04-02T04:33:11.904Z,100118.16
2023-04-02T04:35:38.626Z,100123.94
2023-04-02T04:38:05.055Z,100134.47
2023-04-02T04:40:31.194Z,100125.81
2023-04-02T04:42:57.332Z,100134.34
2023-04-02T04:45:23.466Z,100130.19
2023-04-02T04:47:49.663Z,100133.69
2023-04-02T04:50:16.005Z,100152.59
2023-04-02T04:52:42.164Z,100153.56
2023-04-02T04:55:08.328Z,100159.53
2023-04-02T04:57:34.554Z,100161.88
2023-04-02T05:00:00.763Z,100162.84
2023-04-02T05:02:26.990Z,100161.88
2023-04-02T05:04:53.220Z,100170.41
2023-04-02T05:07:19.458Z,100170.50
2023-04-02T05:09:45.652Z,100173.88
2023-04-02T05:12:11.853Z,100180.78
2023-04-02T05:14:37.982Z,100183.47
2023-04-02T05:17:04.118Z,100183.56
2023-04-02T05:19:30.354Z,100187.00
2023-04-02T05:21:56.539Z,100197.47
2023-04-02T05:24:22.721Z,100194.88
2023-04-02T05:26:48.859Z,100199.94
2023-04-02T05:29:15.048Z,100200.78
2023-04-02T05:31:41.181Z,100206.78
2023-04-02T05:34:07.390Z,100207.66
2023-04-02T05:36:33.528Z,100216.31
2023-04-02T05:38:59.624Z,100217.03
2023-04-02T05:41:25.829Z,100221.25
2023-04-02T05:43:51.940Z,100222.91
2023-04-02T05:46:18.171Z,100225.50
2023-04-02T05:48:44.337Z,100238.22
2023-04-02T05:51:10.498Z,100230.56
2023-04-02T05:53:36.621Z,100244.34
2023-04-02T05:56:02.840Z,100250.31
2023-04-02T05:58:36.374Z,100244.06
2023-04-02T06:01:15.809Z,100254.53
2023-04-02T06:03:42.055Z,100246.69
2023-04-02T06:06:08.307Z,100257.00
2023-04-02T06:08:34.457Z,100261.13
2023-04-02T06:11:00.640Z,100263.72
2023-04-02T06:13:26.814Z,100276.66
2023-04-02T06:15:53.028Z,100272.28
2023-04-02T06:18:19.192Z,100281.56
2023-04-02T06:20:45.380Z,100284.66
2023-04-02T06:23:11.602Z,100274.56
2023-04-02T06:25:38.015Z,100291.28
2023-04-02T06:28:04.368Z,100298.31
2023-04-02T06:30:30.568Z,100299.03
2023-04-02T06:32:56.720Z,100304.81
2023-04-02T06:35:23.076Z,100300.28
2023-04-02T06:37:49.281Z,100305.13
2023-04-02T06:40:15.558Z,100311.19
2023-04-02T06:42:41.772Z,100307.81
2023-04-02T06:45:07.940Z,100312.28
2023-04-02T06:47:34.103Z,100325.75
2023-04-02T06:50:00.332Z,100324.72
2023-04-02T06:52:26.509Z,100321.91
2023-04-02T06:54:52.773Z,100330.78
2023-04-02T06:57:19.083Z,100332.16
2023-04-02T06:59:45.321Z,100341.34
2023-04-02T07:02:11.623Z,100349.56
2023-04-02T07:04:37.859Z,100344.41
2023-04-02T07:07:04.093Z,100355.41
2023-04-02T07:09:30.263Z,100354.28
2023-04-02T07:11:56.411Z,100357.47
2023-04-02T07:14:22.558Z,100363.94
2023-04-02T07:16:48.721Z,100356.56
2023-04-02T07:19:14.847Z,100362.56
2023-04-02T07:21:40.995Z,100364.66
2023-04-02T07:24:07.158Z,100371.78
2023-04-02T07:26:33.305Z,100376.91
2023-04-02T07:28:59.447Z,100384.31
2023-04-02T07:31:25.718Z,100395.03
2023-04-02T07:33:51.994Z,100396.22
2023-04-02T07:36:18.282Z,100397.13
2023-04-02T07:38:44.418Z,100403.78
2023-04-02T07:41:10.648Z,100409.75
2023-04-02T07:43:36.791Z,100408.25
2023-04-02T07:46:04.122Z,100408.00
2023-04-02T07:48:30.253Z,100409.81
2023-04-02T07:50:56.417Z,100414.03
2023-04-02T07:53:22.626Z,100420.66
2023-04-02T07:55:48.831Z,100432.97
2023-04-02T07:58:14.963Z,100431.09
2023-04-02T08:00:41.083Z,100432.47
2023-04-02T08:03:07.354Z,100441.34
2023-04-02T08:05:33.841Z,100443.25
2023-04-02T08:08:00.114Z,100445.38
2023-04-02T08:10:26.330Z,100446.94
2023-04-02T08:12:52.548Z,100442.78
2023-04-02T08:15:18.746Z,100447.47
2023-04-02T08:17:44.923Z,100454.88
2023-04-02T08:20:11.058Z,100453.13
2023-04-02T08:22:37.270Z,100459.69
2023-04-02T08:25:03.573Z,100458.81
2023-04-02T08:27:29.758Z,100462.13
2023-04-02T08:29:55.886Z,100464.44
2023-04-02T08:32:22.049Z,100470.75
2023-04-02T08:34:48.260Z,100472.34
2023-04-02T08:37:14.436Z,100479.44
2023-04-02T08:39:42.809Z,100483.81
2023-04-02T08:45:01.049Z,100489.16
2023-04-02T08:47:33.906Z,100493.44
2023-04-02T08:50:00.364Z,100504.50
2023-04-02T08:52:26.616Z,100503.06
2023-04-02T08:54:53.076Z,100506.66
2023-04-02T09:03:02.302Z,100511.72
2023-04-02T09:05:38.391Z,100512.56
2023-04-02T09:08:04.586Z,100525.28
2023-04-02T09:10:30.754Z,100525.91
2023-04-02T09:12:56.930Z,100530.56
2023-04-02T09:15:23.129Z,100531.78
2023-04-02T09:17:54.126Z,100540.63
2023-04-02T09:20:20.927Z,100534.72
2023-04-02T09:22:47.122Z,100537.75
2023-04-02T09:25:13.312Z,100548.97
2023-04-02T09:27:39.487Z,100551.81
2023-04-02T09:30:05.692Z,100553.38
2023-04-02T09:32:31.922Z,100552.69
2023-04-02T09:34:58.098Z,100569.59
2023-04-02T09:37:24.270Z,100563.53
2023-04-02T09:39:50.468Z,100568.44
2023-04-02T09:42:16.719Z,100573.97
2023-04-02T09:44:42.943Z,100578.47
2023-04-02T09:47:09.136Z,100578.88
2023-04-02T09:49:35.598Z,100582.34
2023-04-02T09:52:01.765Z,100583.69
2023-04-02T09:54:27.904Z,100594.13
2023-04-02T09:56:54.131Z,100592.41
2023-04-02T09:59:20.375Z,100591.03
2023-04-02T10:01:46.583Z,100585.72
2023-04-02T10:04:12.859Z,100591.84
2023-04-02T10:06:39.109Z,100588.91
2023-04-02T10:09:05.764Z,100589.94
2023-04-02T10:11:43.574Z,100581.19
2023-04-02T10:14:12.155Z,100586.09
2023-04-02T10:16:38.471Z,100584.66
2023-04-02T10:19:04.675Z,100589.63
2023-04-02T10:21:30.864Z,100588.78
2023-04-02T10:23:57.067Z,100594.38
2023-04-02T10:26:23.362Z,100582.34
2023-04-02T10:28:49.537Z,100581.16
2023-04-02T10:31:15.779Z,100578.91
2023-04-02T10:33:42.054Z,100583.22
2023-04-02T10:36:08.340Z,100572.28
2023-04-02T10:38:34.556Z,100577.44
2023-04-02T10:41:00.826Z,100593.72
2023-04-02T10:43:27.126Z,100591.69
2023-04-02T10:45:53.886Z,100598.94
2023-04-02T10:48:20.109Z,100600.09
2023-04-02T10:50:46.298Z,100600.31
2023-04-02T10:53:12.584Z,100603.38
2023-04-02T10:55:38.711Z,100605.22
2023-04-02T10:58:05.148Z,100612.78
2023-04-02T11:00:31.343Z,100617.47
2023-04-02T11:02:57.582Z,100620.66
2023-04-02T11:05:23.787Z,100616.00
2023-04-02T11:07:50.249Z,100622.16
2023-04-02T11:10:16.442Z,100612.75
2023-04-02T11:12:43.654Z,100611.03
2023-04-02T11:15:10.006Z,100619.03
2023-04-02T11:17:36.208Z,100625.59
2023-04-02T11:20:05.498Z,100626.78
2023-04-02T11:22:32.954Z,100630.19
2023-04-02T11:24:59.182Z,100654.81
2023-04-02T11:27:25.359Z,100664.94
2023-04-02T11:29:51.547Z,100673.41
2023-04-02T11:32:17.723Z,100679.81
2023-04-02T11:34:43.910Z,100687.78
2023-04-02T11:37:10.180Z,100691.53
2023-04-02T11:39:36.376Z,100698.16
2023-04-02T11:42:02.576Z,100705.78
2023-04-02T11:44:28.744Z,100704.44
2023-04-02T11:46:54.905Z,100708.38
2023-04-02T11:49:22.190Z,100712.75
2023-04-02T11:51:49.561Z,100715.97
2023-04-02T11:54:15.848Z,100712.22
2023-04-02T11:56:42.055Z,100719.19
2023-04-02T11:59:08.216Z,100724.66
2023-04-02T12:01:34.472Z,100732.91
2023-04-02T12:04:00.633Z,100735.56
2023-04-02T12:06:26.817Z,100741.19
2023-04-02T12:08:57.955Z,100739.84
2023-04-02T12:11:24.354Z,100735.47
2023-04-02T12:13:50.530Z,100740.19
2023-04-02T12:16:16.828Z,100746.13
2023-04-02T12:18:43.041Z,100749.94
2023-04-02T12:21:09.204Z,100759.88
2023-04-02T12:23:35.398Z,100760.78
2023-04-02T12:26:01.644Z,100766.88
2023-04-02T12:28:27.879Z,100773.78
2023-04-02T12:30:54.085Z,100767.06
2023-04-02T12:33:20.273Z,100773.72
2023-04-02T12:35:46.487Z,100784.16
2023-04-02T12:38:12.760Z,100790.72
2023-04-02T12:40:38.972Z,100798.81
2023-04-02T12:43:05.174Z,100804.41
2023-04-02T12:45:31.380Z,100805.75
2023-04-02T12:47:57.548Z,100810.63
2023-04-02T12:50:24.015Z,100809.94
2023-04-02T12:52:50.364Z,100824.13
2023-04-02T12:55:16.540Z,100826.72
2023-04-02T12:57:42.896Z,100828.41
2023-04-02T13:00:09.247Z,100820.84
2023-04-02T13:02:35.409Z,100828.72
2023-04-02T13:05:01.714Z,100826.63
2023-04-02T13:07:27.929Z,100829.72
2023-04-02T13:09:54.166Z,100832.63
2023-04-02T13:12:20.425Z,100835.28
2023-04-02T13:14:46.550Z,100836.19
2023-04-02T13:17:12.750Z,100837.09
2023-04-02T13:19:38.948Z,100840.19
2023-04-02T13:22:05.117Z,100844.47
2023-04-02T13:24:31.292Z,100843.25
2023-04-02T13:26:57.800Z,100851.19
2023-04-02T13:29:23.966Z,100856.47
2023-04-02T13:31:50.241Z,100857.00
2023-04-02T13:34:16.646Z,100858.78
2023-04-02T13:36:42.847Z,100870.91
2023-04-02T13:39:09.073Z,100862.28
2023-04-02T13:41:35.343Z,100864.00
2023-04-02T13:44:01.525Z,100868.97
2023-04-02T13:46:27.902Z,100868.78
2023-04-02T13:48:54.058Z,100871.25
2023-04-02T13:51:20.241Z,100873.84
2023-04-02T13:53:46.414Z,100880.53
2023-04-02T13:56:12.619Z,100878.66
2023-04-02T13:58:38.749Z,100877.72
2023-04-02T14:01:04.981Z,100885.47
2023-04-02T14:03:31.181Z,100891.25
2023-04-02T14:05:57.365Z,100898.75
2023-04-02T14:08:23.569Z,100901.94
2023-04-02T14:10:49.775Z,100905.81
2023-04-02T14:13:15.993Z,100902.28
2023-04-02T14:15:45.164Z,100908.59
2023-04-02T14:18:11.327Z,100910.03
2023-04-02T14:20:37.498Z,100923.72
2023-04-02T14:23:03.726Z,100927.69
2023-04-02T14:25:29.896Z,100925.63
2023-04-02T14:27:56.034Z,100932.47
2023-04-02T14:30:22.226Z,100941.06
2023-04-02T14:32:48.406Z,100945.50
2023-04-02T14:35:14.583Z,100949.13
2023-04-02T14:37:40.740Z,100945.66
2023-04-02T14:40:06.921Z,100953.66
2023-04-02T14:42:33.141Z,100957.16
2023-04-02T14:44:59.307Z,100962.97
2023-04-02T14:47:25.572Z,100969.13
2023-04-02T14:49:51.797Z,100964.06
2023-04-02T14:52:17.908Z,100964.66
2023-04-02T14:54:44.111Z,100969.34
2023-04-02T14:57:10.292Z,100972.16
2023-04-02T14:59:36.564Z,100970.47
2023-04-02T15:02:02.824Z,100974.91
2023-04-02T15:04:29.045Z,100982.91
2023-04-02T15:06:55.231Z,100987.53
2023-04-02T15:09:21.409Z,100995.41
2023-04-02T15:11:47.688Z,100992.41
2023-04-02T15:14:13.940Z,101000.16
2023-04-02T15:16:40.211Z,100993.38
2023-04-02T15:19:06.432Z,100996.97
2023-04-02T15:21:33.337Z,101004.97
2023-04-02T15:24:00.435Z,101006.13
2023-04-02T15:26:26.632Z,101015.78
2023-04-02T15:28:52.771Z,101008.19
2023-04-02T15:31:19.031Z,101022.13
2023-04-02T15:33:45.218Z,101026.56
2023-04-02T15:36:11.473Z,101029.06
2023-04-02T15:38:37.717Z,101040.28
2023-04-02T15:41:03.888Z,101036.97
2023-04-02T15:43:30.093Z,101037.97
2023-04-02T15:45:56.340Z,101038.66
2023-04-02T15:48:22.483Z,101039.78
2023-04-02T15:50:48.691Z,101050.25
2023-04-02T15:53:14.853Z,101047.75
2023-04-02T15:55:40.986Z,101057.41
2023-04-02T15:58:07.225Z,101055.63
2023-04-02T16:00:33.636Z,101059.97
2023-04-02T16:03:00.018Z,101061.94
2023-04-02T16:05:26.241Z,101066.44
2023-04-02T16:07:52.385Z,101070.91
2023-04-02T16:10:24.570Z,101077.03
2023-04-02T16:12:56.750Z,101072.75
2023-04-02T16:15:23.017Z,101081.31
2023-04-02T16:17:49.167Z,101081.47
2023-04-02T16:20:15.396Z,101087.53
2023-04-02T16:22:53.320Z,101093.59
2023-04-02T16:25:19.900Z,101104.25
2023-04-02T16:27:46.053Z,101110.38
2023-04-02T16:30:12.237Z,101116.56
2023-04-02T16:32:38.432Z,101113.06
2023-04-02T16:35:24.852Z,101118.31
2023-04-02T16:37:50.757Z,101115.69
2023-04-02T16:40:16.924Z,101130.56
2023-04-02T16:42:43.086Z,101127.97
2023-04-02T16:45:09.272Z,101135.03
2023-04-02T16:47:35.488Z,101142.97
2023-04-02T16:50:01.677Z,101142.84
2023-04-02T16:52:27.894Z,101150.78
2023-04-02T16:54:54.142Z,101153.56
2023-04-02T16:57:20.429Z,101162.41
2023-04-02T16:59:46.626Z,101165.31
2023-04-02T17:02:12.804Z,101175.06
2023-04-02T17:04:38.976Z,101177.00
2023-04-02T17:07:05.167Z,101174.47
2023-04-02T17:09:31.356Z,101181.50
2023-04-02T17:11:57.579Z,101192.53
2023-04-02T17:14:23.834Z,101189.78
2023-04-02T17:16:50.032Z,101194.09
2023-04-02T17:19:16.254Z,101192.50
2023-04-02T17:21:42.424Z,101206.41
2023-04-02T17:24:08.697Z,101209.97
2023-04-02T17:26:34.872Z,101219.59
2023-04-02T17:29:01.141Z,101225.75
2023-04-02T17:31:27.321Z,101237.88
2023-04-02T17:33:53.542Z,101239.56
2023-04-02T17:36:19.768Z,101246.47
2023-04-02T17:38:45.977Z,101252.69
2023-04-02T17:41:12.140Z,101258.00
2023-04-02T17:43:38.333Z,101257.16
2023-04-02T17:46:04.568Z,101268.38
2023-04-02T17:48:30.850Z,101264.94
2023-04-02T17:50:57.043Z,101274.63
2023-04-02T17:53:23.268Z,101280.69
2023-04-02T17:55:49.395Z,101287.63
2023-04-02T17:58:15.545Z,101292.97
2023-04-02T18:00:41.719Z,101304.25
2023-04-02T18:03:08.015Z,101305.41
2023-04-02T18:05:34.296Z,101309.72
2023-04-02T18:08:00.499Z,101311.56
2023-04-02T18:10:26.687Z,101317.63
2023-04-02T18:12:52.863Z,101321.97
2023-04-02T18:15:19.056Z,101335.72
2023-04-02T18:17:45.343Z,101341.19
2023-04-02T18:20:11.519Z,101342.94
2023-04-02T18:22:37.684Z,101344.69
2023-04-02T18:25:03.882Z,101348.28
2023-04-02T18:27:30.022Z,101355.28
2023-04-02T18:29:56.210Z,101367.47
2023-04-02T18:32:22.462Z,101374.44
2023-04-02T18:34:48.670Z,101378.03
2023-04-02T18:37:14.914Z,101386.75
2023-04-02T18:39:41.120Z,101394.59
2023-04-02T18:42:07.408Z,101397.19
2023-04-02T18:44:33.614Z,101401.50
2023-04-02T18:46:59.823Z,101407.66
2023-04-02T18:49:26.046Z,101413.66
2023-04-02T18:51:52.268Z,101424.09
2023-04-02T18:54:18.418Z,101425.88
2023-04-02T18:56:44.565Z,101432.84
2023-04-02T18:59:10.762Z,101440.69
2023-04-02T19:01:36.966Z,101443.34
2023-04-02T19:04:03.285Z,101452.97
2023-04-02T19:06:29.700Z,101453.84
2023-04-02T19:08:55.945Z,101461.69
2023-04-02T19:11:22.136Z,101459.09
2023-04-02T19:13:48.311Z,101464.31
2023-04-02T19:16:14.481Z,101476.38
2023-04-02T19:18:40.736Z,101478.28
2023-04-02T19:21:07.030Z,101482.59
2023-04-02T19:23:33.233Z,101487.81
2023-04-02T19:25:59.395Z,101492.19
2023-04-02T19:28:25.625Z,101517.28
2023-04-02T19:30:51.849Z,101511.28
2023-04-02T19:33:18.024Z,101516.53
2023-04-02T19:35:44.253Z,101516.59
2023-04-02T19:38:10.401Z,101516.69
2023-04-02T19:40:36.535Z,101538.38
2023-04-02T19:43:02.671Z,101538.38
2023-04-02T19:45:28.802Z,101545.34
2023-04-02T19:47:55.103Z,101545.34
2023-04-02T19:50:21.344Z,101541.94
2023-04-02T19:52:47.524Z,101554.91
2023-04-02T19:55:13.722Z,101563.50
2023-04-02T19:57:39.909Z,101559.22
2023-04-02T20:00:06.231Z,101566.16
2023-04-02T20:02:32.477Z,101570.47
2023-04-02T20:04:58.744Z,101572.22
2023-04-02T20:07:24.924Z,101576.53
2023-04-02T20:09:51.144Z,101579.09
2023-04-02T20:12:17.314Z,101573.91
2023-04-02T20:14:43.543Z,101579.19
2023-04-02T20:17:09.732Z,101580.00
2023-04-02T20:19:35.866Z,101581.78
2023-04-02T20:22:02.029Z,101586.13
2023-04-02T20:24:28.215Z,101590.47
2023-04-02T20:26:54.415Z,101597.41
2023-04-02T20:29:23.445Z,101593.06
2023-04-02T20:31:49.617Z,101599.13
2023-04-02T20:34:15.985Z,101609.50
2023-04-02T20:36:42.300Z,101603.44
2023-04-02T20:39:08.478Z,101613.78
2023-04-02T20:41:34.655Z,101616.38
2023-04-02T20:44:00.839Z,101619.00
2023-04-02T20:46:27.027Z,101625.06
2023-04-02T20:48:53.270Z,101625.06
2023-04-02T20:51:19.428Z,101625.06
2023-04-02T20:53:45.647Z,101627.69
2023-04-02T20:56:11.825Z,101630.28
2023-04-02T20:58:38.106Z,101639.78
2023-04-02T21:01:04.331Z,101640.66
2023-04-02T21:03:30.554Z,101645.81
2023-04-02T21:05:56.750Z,101643.25
2023-04-02T21:08:22.967Z,101648.41
2023-04-02T21:10:49.176Z,101653.59
2023-04-02T21:13:15.350Z,101657.06
2023-04-02T21:15:41.570Z,101660.53
2023-04-02T21:18:07.753Z,101658.84
2023-04-02T21:20:33.903Z,101667.50
2023-04-02T21:23:00.132Z,101667.59
2023-04-02T21:25:26.284Z,101674.53
2023-04-02T21:27:52.432Z,101665.09
2023-04-02T21:30:18.591Z,101672.88
2023-04-02T21:32:44.842Z,101680.66
2023-04-02T21:35:11.172Z,101678.13
2023-04-02T21:37:37.326Z,101677.25
2023-04-02T21:40:03.495Z,101678.94
2023-04-02T21:42:30.891Z,101672.91
2023-04-02T21:44:57.084Z,101673.72
2023-04-02T21:47:23.282Z,101673.69
2023-04-02T21:49:49.434Z,101672.81
2023-04-02T21:52:15.645Z,101677.13
2023-04-02T21:54:41.814Z,101672.78
2023-04-02T21:57:08.048Z,101672.78
2023-04-02T21:59:34.280Z,101672.75
2023-04-02T22:02:00.505Z,101674.47
2023-04-02T22:04:26.814Z,101676.22
2023-04-02T22:06:53.090Z,101677.03
2023-04-02T22:09:19.278Z,101673.59
2023-04-02T22:11:45.481Z,101670.97
2023-04-02T22:14:11.628Z,101671.03
2023-04-02T22:16:37.848Z,101679.63
2023-04-02T22:19:04.049Z,101677.06
2023-04-02T22:21:30.202Z,101681.41
2023-04-02T22:23:56.407Z,101680.56
2023-04-02T22:26:22.554Z,101682.28
2023-04-02T22:28:48.679Z,101682.22
2023-04-02T22:31:14.979Z,101690.84
2023-04-02T22:33:41.240Z,101690.84
2023-04-02T22:36:07.421Z,101688.28
2023-04-02T22:38:33.601Z,101689.97
2023-04-02T22:40:59.802Z,101677.94
2023-04-02T22:43:26.013Z,101683.91
2023-04-02T22:45:52.324Z,101688.25
2023-04-02T22:48:18.513Z,101691.72
2023-04-02T22:50:44.632Z,101697.75
2023-04-02T22:53:10.828Z,101689.09
2023-04-02T22:55:36.966Z,101702.91
2023-04-02T22:58:03.168Z,101696.00
2023-04-02T23:00:29.351Z,101702.91
2023-04-02T23:02:55.562Z,101698.53
2023-04-02T23:05:21.917Z,101695.22
2023-04-02T23:07:48.228Z,101673.78
2023-04-02T23:10:14.433Z,101673.81
2023-04-02T23:12:40.655Z,101680.72
2023-04-02T23:15:06.858Z,101683.41
2023-04-02T23:17:33.067Z,101686.88
2023-04-02T23:19:59.259Z,101686.91
2023-04-02T23:22:25.412Z,101689.53
2023-04-02T23:24:51.561Z,101686.94
2023-04-02T23:27:17.676Z,101685.22
2023-04-02T23:29:43.860Z,101689.53
2023-04-02T23:32:10.012Z,101690.38
2023-04-02T23:34:36.185Z,101692.97
2023-04-02T23:37:02.350Z,101692.13
2023-04-02T23:39:28.528Z,101690.38
2023-04-02T23:41:54.696Z,101685.22
2023-04-02T23:44:20.872Z,101691.25
2023-04-02T23:46:47.012Z,101683.50
2023-04-02T23:49:13.284Z,101688.66
2023-04-02T23:51:39.440Z,101683.50
2023-04-02T23:54:05.565Z,101682.63
2023-04-02T23:56:31.703Z,101681.78
2023-04-02T23:58:57.893Z,101693.78
